sensor_id;sensor_type;location;lat;lon;timestamp;pressure;altitude;pressure_sealevel;temperature;humidity
45050;BME280;61798;48.048;-1.928;2023-07-29T00:00:40;100257.06;;;16.21;100.00
45050;BME280;61798;48.048;-1.928;2023-07-29T00:02:46;100303.44;;;16.42;100.00
45050;BME280;61798;48.048;-1.928;2023-07-29T00:04:52;100285.47;;;16.35;100.00
45050;BME280;61798;48.048;-1.928;2023-07-29T00:06:58;100297.06;;;16.48;100.00
45050;BME280;61798;48.048;-1.928;2023-07-29T00:09:04;100281.91;;;16.47;100.00
45050;BME280;61798;48.048;-1.928;2023-07-29T00:11:10;100269.34;;;16.41;100.00
45050;BME280;61798;48.048;-1.928;2023-07-29T00:13:15;100287.59;;;16.63;100.00
45050;BME280;61798;48.048;-1.928;2023-07-29T00:15:21;100277.66;;;16.51;100.00
45050;BME280;61798;48.048;-1.928;2023-07-29T00:17:27;100285.19;;;16.49;100.00
45050;BME280;61798;48.048;-1.928;2023-07-29T00:19:33;100285.78;;;16.51;100.00
45050;BME280;61798;48.048;-1.928;2023-07-29T00:21:39;100279.63;;;16.56;100.00
45050;BME280;61798;48.048;-1.928;2023-07-29T00:23:46;100266.91;;;16.56;100.00
45050;BME280;61798;48.048;-1.928;2023-07-29T00:25:52;100235.59;;;16.43;100.00
45050;BME280;61798;48.048;-1.928;2023-07-29T00:27:58;100236.88;;;16.41;100.00
45050;BME280;61798;48.048;-1.928;2023-07-29T00:30:04;100267.13;;;16.67;100.00
45050;BME280;61798;48.048;-1.928;2023-07-29T00:32:10;100268.88;;;16.61;100.00
45050;BME280;61798;48.048;-1.928;2023-07-29T00:34:16;100263.16;;;16.57;100.00
45050;BME280;61798;48.048;-1.928;2023-07-29T00:36:25;100269.72;;;16.62;100.00
45050;BME280;61798;48.048;-1.928;2023-07-29T00:38:30;100243.94;;;16.42;100.00
45050;BME280;61798;48.048;-1.928;2023-07-29T00:40:36;100274.31;;;16.61;100.00
45050;BME280;61798;48.048;-1.928;2023-07-29T00:42:42;100266.44;;;16.59;100.00
45050;BME280;61798;48.048;-1.928;2023-07-29T00:44:48;100243.66;;;16.55;100.00
45050;BME280;61798;48.048;-1.928;2023-07-29T00:46:54;100258.41;;;16.65;100.00
45050;BME280;61798;48.048;-1.928;2023-07-29T00:49:00;100244.47;;;16.56;100.00
45050;BME280;61798;48.048;-1.928;2023-07-29T00:51:07;100251.84;;;16.60;100.00
45050;BME280;61798;48.048;-1.928;2023-07-29T00:53:13;100233.56;;;16.51;100.00
45050;BME280;61798;48.048;-1.928;2023-07-29T00:55:18;100225.78;;;16.54;100.00
45050;BME280;61798;48.048;-1.928;2023-07-29T00:57:25;100223.56;;;16.51;100.00
45050;BME280;61798;48.048;-1.928;2023-07-29T00:59:31;100254.97;;;16.69;100.00
45050;BME280;61798;48.048;-1.928;2023-07-29T01:01:38;100259.50;;;16.64;100.00
45050;BME280;61798;48.048;-1.928;2023-07-29T01:03:44;100222.47;;;16.52;100.00
45050;BME280;61798;48.048;-1.928;2023-07-29T01:06:01;100228.81;;;16.58;100.00
45050;BME280;61798;48.048;-1.928;2023-07-29T01:08:24;100241.72;;;16.68;100.00
45050;BME280;61798;48.048;-1.928;2023-07-29T01:11:01;100243.91;;;16.71;100.00
45050;BME280;61798;48.048;-1.928;2023-07-29T01:18:05;100247.78;;;16.75;100.00
45050;BME280;61798;48.048;-1.928;2023-07-29T01:20:14;100229.56;;;16.70;100.00
45050;BME280;61798;48.048;-1.928;2023-07-29T01:22:21;100228.09;;;16.80;100.00
45050;BME280;61798;48.048;-1.928;2023-07-29T01:24:27;100225.47;;;16.68;100.00
45050;BME280;61798;48.048;-1.928;2023-07-29T01:26:32;100238.91;;;16.80;100.00
45050;BME280;61798;48.048;-1.928;2023-07-29T01:28:39;100237.69;;;16.70;100.00
45050;BME280;61798;48.048;-1.928;2023-07-29T01:30:45;100236.97;;;16.75;100.00
45050;BME280;61798;48.048;-1.928;2023-07-29T01:33:17;100233.59;;;16.85;100.00
45050;BME280;61798;48.048;-1.928;2023-07-29T01:37:32;100222.66;;;16.80;100.00
45050;BME280;61798;48.048;-1.928;2023-07-29T01:39:38;100228.91;;;16.80;100.00
45050;BME280;61798;48.048;-1.928;2023-07-29T01:41:45;100204.63;;;16.68;100.00
45050;BME280;61798;48.048;-1.928;2023-07-29T01:43:52;100226.88;;;16.88;100.00
45050;BME280;61798;48.048;-1.928;2023-07-29T01:45:58;100210.88;;;16.69;100.00
45050;BME280;61798;48.048;-1.928;2023-07-29T01:48:05;100238.25;;;16.90;100.00
45050;BME280;61798;48.048;-1.928;2023-07-29T01:50:11;100233.34;;;16.87;100.00
45050;BME280;61798;48.048;-1.928;2023-07-29T01:52:17;100216.78;;;16.66;100.00
45050;BME280;61798;48.048;-1.928;2023-07-29T01:54:22;100237.59;;;16.83;100.00
45050;BME280;61798;48.048;-1.928;2023-07-29T01:56:28;100217.91;;;16.70;100.00
45050;BME280;61798;48.048;-1.928;2023-07-29T01:58:34;100240.13;;;16.72;100.00
45050;BME280;61798;48.048;-1.928;2023-07-29T02:00:40;100242.38;;;16.75;100.00
45050;BME280;61798;48.048;-1.928;2023-07-29T02:02:46;100241.28;;;16.76;100.00
45050;BME280;61798;48.048;-1.928;2023-07-29T02:04:52;100237.59;;;16.65;100.00
45050;BME280;61798;48.048;-1.928;2023-07-29T02:06:58;100217.16;;;16.57;100.00
45050;BME280;61798;48.048;-1.928;2023-07-29T02:09:03;100213.31;;;16.53;100.00
45050;BME280;61798;48.048;-1.928;2023-07-29T02:11:10;100251.22;;;16.70;100.00
45050;BME280;61798;48.048;-1.928;2023-07-29T02:13:15;100225.94;;;16.65;100.00
45050;BME280;61798;48.048;-1.928;2023-07-29T02:15:21;100246.22;;;16.79;100.00
45050;BME280;61798;48.048;-1.928;2023-07-29T02:17:27;100241.28;;;16.76;100.00
45050;BME280;61798;48.048;-1.928;2023-07-29T02:19:33;100232.59;;;16.74;100.00
45050;BME280;61798;48.048;-1.928;2023-07-29T02:21:39;100227.09;;;16.69;100.00
45050;BME280;61798;48.048;-1.928;2023-07-29T02:23:44;100225.81;;;16.72;100.00
45050;BME280;61798;48.048;-1.928;2023-07-29T02:25:51;100227.84;;;16.81;100.00
45050;BME280;61798;48.048;-1.928;2023-07-29T02:27:56;100223.50;;;16.80;100.00
45050;BME280;61798;48.048;-1.928;2023-07-29T02:30:03;100231.38;;;16.82;100.00
45050;BME280;61798;48.048;-1.928;2023-07-29T02:32:09;100201.53;;;16.59;100.00
45050;BME280;61798;48.048;-1.928;2023-07-29T02:34:15;100216.38;;;16.74;100.00
45050;BME280;61798;48.048;-1.928;2023-07-29T02:36:20;100238.91;;;16.80;100.00
45050;BME280;61798;48.048;-1.928;2023-07-29T02:38:26;100239.16;;;16.78;100.00
45050;BME280;61798;48.048;-1.928;2023-07-29T02:40:32;100238.34;;;16.78;100.00
45050;BME280;61798;48.048;-1.928;2023-07-29T02:42:38;100254.81;;;16.76;100.00
45050;BME280;61798;48.048;-1.928;2023-07-29T02:44:44;100248.34;;;16.77;100.00
45050;BME280;61798;48.048;-1.928;2023-07-29T02:46:49;100251.47;;;16.86;100.00
45050;BME280;61798;48.048;-1.928;2023-07-29T02:48:57;100249.16;;;16.78;100.00
45050;BME280;61798;48.048;-1.928;2023-07-29T02:51:03;100242.53;;;16.86;100.00
45050;BME280;61798;48.048;-1.928;2023-07-29T02:53:09;100220.22;;;16.78;100.00
45050;BME280;61798;48.048;-1.928;2023-07-29T02:55:15;100212.66;;;16.80;100.00
45050;BME280;61798;48.048;-1.928;2023-07-29T02:57:20;100235.88;;;16.94;100.00
45050;BME280;61798;48.048;-1.928;2023-07-29T02:59:26;100218.16;;;16.86;100.00
45050;BME280;61798;48.048;-1.928;2023-07-29T03:01:32;100223.34;;;16.87;100.00
45050;BME280;61798;48.048;-1.928;2023-07-29T03:03:39;100211.06;;;16.79;100.00
45050;BME280;61798;48.048;-1.928;2023-07-29T03:05:45;100233.41;;;16.92;100.00
45050;BME280;61798;48.048;-1.928;2023-07-29T03:07:51;100233.41;;;16.92;100.00
45050;BME280;61798;48.048;-1.928;2023-07-29T03:09:56;100234.81;;;16.95;100.00
45050;BME280;61798;48.048;-1.928;2023-07-29T03:12:02;100216.13;;;16.93;100.00
45050;BME280;61798;48.048;-1.928;2023-07-29T03:14:08;100220.38;;;16.89;100.00
45050;BME280;61798;48.048;-1.928;2023-07-29T03:16:16;100220.16;;;16.90;100.00
45050;BME280;61798;48.048;-1.928;2023-07-29T03:18:22;100203.59;;;16.87;100.00
45050;BME280;61798;48.048;-1.928;2023-07-29T03:20:27;100184.97;;;16.73;100.00
45050;BME280;61798;48.048;-1.928;2023-07-29T03:22:33;100197.44;;;16.74;100.00
45050;BME280;61798;48.048;-1.928;2023-07-29T03:24:39;100202.59;;;16.76;100.00
45050;BME280;61798;48.048;-1.928;2023-07-29T03:26:45;100201.53;;;16.77;100.00
45050;BME280;61798;48.048;-1.928;2023-07-29T03:28:51;100213.34;;;16.88;100.00
45050;BME280;61798;48.048;-1.928;2023-07-29T03:30:57;100214.31;;;16.99;100.00
45050;BME280;61798;48.048;-1.928;2023-07-29T03:33:03;100208.72;;;16.88;100.00
45050;BME280;61798;48.048;-1.928;2023-07-29T03:35:10;100216.63;;;16.90;100.00
45050;BME280;61798;48.048;-1.928;2023-07-29T03:37:16;100204.63;;;16.86;100.00
45050;BME280;61798;48.048;-1.928;2023-07-29T03:39:22;100188.25;;;16.75;100.00
45050;BME280;61798;48.048;-1.928;2023-07-29T03:41:28;100212.84;;;16.91;100.00
45050;BME280;61798;48.048;-1.928;2023-07-29T03:43:34;100211.69;;;16.87;100.00
45050;BME280;61798;48.048;-1.928;2023-07-29T03:45:40;100215.69;;;16.84;100.00
45050;BME280;61798;48.048;-1.928;2023-07-29T03:47:46;100200.38;;;16.73;100.00
45050;BME280;61798;48.048;-1.928;2023-07-29T03:49:52;100204.72;;;16.74;100.00
45050;BME280;61798;48.048;-1.928;2023-07-29T03:51:57;100203.34;;;16.71;100.00
45050;BME280;61798;48.048;-1.928;2023-07-29T03:54:03;100193.75;;;16.63;100.00
45050;BME280;61798;48.048;-1.928;2023-07-29T03:56:09;100193.56;;;16.70;100.00
45050;BME280;61798;48.048;-1.928;2023-07-29T03:58:15;100223.50;;;16.80;100.00
45050;BME280;61798;48.048;-1.928;2023-07-29T04:00:20;100218.06;;;16.80;100.00
45050;BME280;61798;48.048;-1.928;2023-07-29T04:02:26;100213.66;;;16.74;100.00
45050;BME280;61798;48.048;-1.928;2023-07-29T04:04:32;100183.88;;;16.57;100.00
45050;BME280;61798;48.048;-1.928;2023-07-29T04:06:38;100196.78;;;16.67;100.00
45050;BME280;61798;48.048;-1.928;2023-07-29T04:08:44;100189.16;;;16.64;100.00
45050;BME280;61798;48.048;-1.928;2023-07-29T04:10:49;100218.66;;;16.83;100.00
45050;BME280;61798;48.048;-1.928;2023-07-29T04:12:55;100222.19;;;16.83;100.00
45050;BME280;61798;48.048;-1.928;2023-07-29T04:15:01;100218.25;;;16.74;100.00
45050;BME280;61798;48.048;-1.928;2023-07-29T04:17:08;100200.72;;;16.59;100.00
45050;BME280;61798;48.048;-1.928;2023-07-29T04:19:13;100225.63;;;16.78;100.00
45050;BME280;61798;48.048;-1.928;2023-07-29T04:21:19;100231.38;;;16.82;100.00
45050;BME280;61798;48.048;-1.928;2023-07-29T04:23:25;100213.50;;;16.64;100.00
45050;BME280;61798;48.048;-1.928;2023-07-29T04:25:31;100239.16;;;16.78;100.00
45050;BME280;61798;48.048;-1.928;2023-07-29T04:27:37;100253.03;;;16.82;100.00
45050;BME280;61798;48.048;-1.928;2023-07-29T04:29:42;100235.63;;;16.78;100.00
45050;BME280;61798;48.048;-1.928;2023-07-29T04:31:51;100234.66;;;16.84;100.00
45050;BME280;61798;48.048;-1.928;2023-07-29T04:33:57;100237.59;;;16.83;100.00
45050;BME280;61798;48.048;-1.928;2023-07-29T04:36:03;100216.78;;;16.66;100.00
45050;BME280;61798;48.048;-1.928;2023-07-29T04:38:09;100229.50;;;16.83;100.00
45050;BME280;61798;48.048;-1.928;2023-07-29T04:40:15;100221.19;;;16.72;100.00
45050;BME280;61798;48.048;-1.928;2023-07-29T04:42:21;100219.06;;;16.74;100.00
45050;BME280;61798;48.048;-1.928;2023-07-29T04:44:27;100233.25;;;16.81;100.00
45050;BME280;61798;48.048;-1.928;2023-07-29T04:46:33;100220.63;;;16.70;100.00
45050;BME280;61798;48.048;-1.928;2023-07-29T04:48:39;100235.13;;;16.81;100.00
45050;BME280;61798;48.048;-1.928;2023-07-29T04:50:45;100226.19;;;16.80;100.00
45050;BME280;61798;48.048;-1.928;2023-07-29T04:52:51;100230.56;;;16.81;100.00
45050;BME280;61798;48.048;-1.928;2023-07-29T04:54:58;100243.53;;;16.79;100.00
45050;BME280;61798;48.048;-1.928;2023-07-29T04:57:04;100210.47;;;16.60;100.00
45050;BME280;61798;48.048;-1.928;2023-07-29T04:59:10;100228.25;;;16.73;100.00
45050;BME280;61798;48.048;-1.928;2023-07-29T05:01:18;100220.41;;;16.72;100.00
45050;BME280;61798;48.048;-1.928;2023-07-29T05:03:24;100232.69;;;16.79;100.00
45050;BME280;61798;48.048;-1.928;2023-07-29T05:05:30;100220.47;;;16.77;100.00
45050;BME280;61798;48.048;-1.928;2023-07-29T05:07:36;100202.19;;;16.67;100.00
45050;BME280;61798;48.048;-1.928;2023-07-29T05:09:42;100211.53;;;16.76;100.00
45050;BME280;61798;48.048;-1.928;2023-07-29T05:11:48;100210.38;;;16.72;100.00
45050;BME280;61798;48.048;-1.928;2023-07-29T05:13:54;100209.31;;;16.73;100.00
45050;BME280;61798;48.048;-1.928;2023-07-29T05:16:00;100239.31;;;16.89;100.00
45050;BME280;61798;48.048;-1.928;2023-07-29T05:18:06;100228.44;;;16.84;100.00
45050;BME280;61798;48.048;-1.928;2023-07-29T05:20:12;100230.72;;;16.92;100.00
45050;BME280;61798;48.048;-1.928;2023-07-29T05:22:17;100235.47;;;16.85;100.00
45050;BME280;61798;48.048;-1.928;2023-07-29T05:24:23;100225.13;;;16.81;100.00
45050;BME280;61798;48.048;-1.928;2023-07-29T05:26:29;100216.94;;;16.76;100.00
45050;BME280;61798;48.048;-1.928;2023-07-29T05:28:35;100217.34;;;16.85;100.00
45050;BME280;61798;48.048;-1.928;2023-07-29T05:30:43;100230.88;;;16.85;100.00
45050;BME280;61798;48.048;-1.928;2023-07-29T05:32:49;100198.06;;;16.64;100.00
45050;BME280;61798;48.048;-1.928;2023-07-29T05:34:55;100199.88;;;16.58;100.00
45050;BME280;61798;48.048;-1.928;2023-07-29T05:37:01;100227.63;;;16.83;100.00
45050;BME280;61798;48.048;-1.928;2023-07-29T05:39:06;100193.66;;;16.58;100.00
45050;BME280;61798;48.048;-1.928;2023-07-29T05:41:12;100195.03;;;16.60;100.00
45050;BME280;61798;48.048;-1.928;2023-07-29T05:43:18;100219.63;;;16.76;100.00
45050;BME280;61798;48.048;-1.928;2023-07-29T05:45:24;100228.09;;;16.80;100.00
45050;BME280;61798;48.048;-1.928;2023-07-29T05:47:30;100216.28;;;16.69;100.00
45050;BME280;61798;48.048;-1.928;2023-07-29T05:49:36;100221.53;;;16.76;100.00
45050;BME280;61798;48.048;-1.928;2023-07-29T05:51:41;100244.91;;;16.99;100.00
45050;BME280;61798;48.048;-1.928;2023-07-29T05:53:47;100226.94;;;16.93;100.00
45050;BME280;61798;48.048;-1.928;2023-07-29T05:55:53;100224.41;;;16.86;100.00
45050;BME280;61798;48.048;-1.928;2023-07-29T05:57:59;100213.81;;;16.85;100.00
45050;BME280;61798;48.048;-1.928;2023-07-29T06:00:06;100222.03;;;16.90;100.00
45050;BME280;61798;48.048;-1.928;2023-07-29T06:02:12;100232.34;;;16.93;100.00
45050;BME280;61798;48.048;-1.928;2023-07-29T06:04:18;100201.94;;;16.86;100.00
45050;BME280;61798;48.048;-1.928;2023-07-29T06:06:24;100230.63;;;17.04;100.00
45050;BME280;61798;48.048;-1.928;2023-07-29T06:08:30;100229.00;;;17.03;100.00
45050;BME280;61798;48.048;-1.928;2023-07-29T06:10:38;100212.03;;;16.90;100.00
45050;BME280;61798;48.048;-1.928;2023-07-29T06:12:47;100246.78;;;17.16;100.00
45050;BME280;61798;48.048;-1.928;2023-07-29T06:14:53;100230.88;;;17.02;100.00
45050;BME280;61798;48.048;-1.928;2023-07-29T06:16:59;100220.25;;;16.96;100.00
45050;BME280;61798;48.048;-1.928;2023-07-29T06:19:04;100252.47;;;17.15;100.00
45050;BME280;61798;48.048;-1.928;2023-07-29T06:21:10;100228.34;;;16.96;100.00
45050;BME280;61798;48.048;-1.928;2023-07-29T06:23:22;100228.69;;;16.99;100.00
45050;BME280;61798;48.048;-1.928;2023-07-29T06:25:28;100233.81;;;17.18;100.00
45050;BME280;61798;48.048;-1.928;2023-07-29T06:27:33;100250.50;;;17.27;100.00
45050;BME280;61798;48.048;-1.928;2023-07-29T06:29:39;100223.19;;;17.11;100.00
45050;BME280;61798;48.048;-1.928;2023-07-29T06:31:45;100236.88;;;17.22;100.00
45050;BME280;61798;48.048;-1.928;2023-07-29T06:33:51;100242.53;;;17.20;100.00
45050;BME280;61798;48.048;-1.928;2023-07-29T06:35:57;100227.28;;;17.14;100.00
45050;BME280;61798;48.048;-1.928;2023-07-29T06:38:03;100242.31;;;17.22;100.00
45050;BME280;61798;48.048;-1.928;2023-07-29T06:40:09;100243.78;;;17.30;100.00
45050;BME280;61798;48.048;-1.928;2023-07-29T06:42:15;100260.75;;;17.42;100.00
45050;BME280;61798;48.048;-1.928;2023-07-29T06:44:21;100254.19;;;17.38;100.00
45050;BME280;61798;48.048;-1.928;2023-07-29T06:46:27;100252.53;;;17.37;100.00
45050;BME280;61798;48.048;-1.928;2023-07-29T06:48:33;100244.19;;;17.39;100.00
45050;BME280;61798;48.048;-1.928;2023-07-29T06:50:38;100251.56;;;17.43;100.00
45050;BME280;61798;48.048;-1.928;2023-07-29T06:52:45;100252.19;;;17.51;100.00
45050;BME280;61798;48.048;-1.928;2023-07-29T06:54:50;100248.34;;;17.47;100.00
45050;BME280;61798;48.048;-1.928;2023-07-29T06:56:56;100258.59;;;17.44;100.00
45050;BME280;61798;48.048;-1.928;2023-07-29T06:59:02;100245.00;;;17.39;100.00
45050;BME280;61798;48.048;-1.928;2023-07-29T07:01:08;100260.38;;;17.56;100.00
45050;BME280;61798;48.048;-1.928;2023-07-29T07:03:14;100219.22;;;17.37;100.00
45050;BME280;61798;48.048;-1.928;2023-07-29T07:05:20;100252.56;;;17.60;100.00
45050;BME280;61798;48.048;-1.928;2023-07-29T07:07:25;100243.53;;;17.71;100.00
45050;BME280;61798;48.048;-1.928;2023-07-29T07:09:31;100249.81;;;17.77;100.00
45050;BME280;61798;48.048;-1.928;2023-07-29T07:11:37;100259.28;;;17.74;100.00
45050;BME280;61798;48.048;-1.928;2023-07-29T07:13:43;100254.03;;;17.68;100.00
45050;BME280;61798;48.048;-1.928;2023-07-29T07:15:49;100259.00;;;17.76;100.00
45050;BME280;61798;48.048;-1.928;2023-07-29T07:17:54;100240.16;;;17.64;100.00
45050;BME280;61798;48.048;-1.928;2023-07-29T07:20:00;100255.81;;;17.79;100.00
45050;BME280;61798;48.048;-1.928;2023-07-29T07:22:06;100282.84;;;17.74;100.00
45050;BME280;61798;48.048;-1.928;2023-07-29T07:24:12;100264.94;;;17.73;100.00
45050;BME280;61798;48.048;-1.928;2023-07-29T07:26:17;100281.50;;;17.76;100.00
45050;BME280;61798;48.048;-1.928;2023-07-29T07:28:23;100266.72;;;17.84;100.00
45050;BME280;61798;48.048;-1.928;2023-07-29T07:30:29;100250.31;;;17.74;100.00
45050;BME280;61798;48.048;-1.928;2023-07-29T07:32:35;100263.81;;;17.69;100.00
45050;BME280;61798;48.048;-1.928;2023-07-29T07:34:42;100235.06;;;17.68;100.00
45050;BME280;61798;48.048;-1.928;2023-07-29T07:36:47;100274.47;;;17.98;100.00
45050;BME280;61798;48.048;-1.928;2023-07-29T07:38:53;100260.72;;;18.05;100.00
45050;BME280;61798;48.048;-1.928;2023-07-29T07:40:59;100271.56;;;18.05;100.00
45050;BME280;61798;48.048;-1.928;2023-07-29T07:43:05;100268.34;;;18.08;100.00
45050;BME280;61798;48.048;-1.928;2023-07-29T07:45:11;100267.78;;;18.06;100.00
45050;BME280;61798;48.048;-1.928;2023-07-29T07:47:16;100264.63;;;18.14;100.00
45050;BME280;61798;48.048;-1.928;2023-07-29T07:49:22;100267.72;;;18.23;100.00
45050;BME280;61798;48.048;-1.928;2023-07-29T07:51:28;100222.34;;;17.91;100.00
45050;BME280;61798;48.048;-1.928;2023-07-29T07:53:34;100266.75;;;18.12;100.00
45050;BME280;61798;48.048;-1.928;2023-07-29T07:55:40;100266.47;;;18.08;100.00
45050;BME280;61798;48.048;-1.928;2023-07-29T07:57:45;100231.63;;;17.95;100.00
45050;BME280;61798;48.048;-1.928;2023-07-29T07:59:52;100243.69;;;18.10;100.00
45050;BME280;61798;48.048;-1.928;2023-07-29T08:01:58;100257.63;;;18.18;100.00
45050;BME280;61798;48.048;-1.928;2023-07-29T08:04:04;100261.97;;;18.20;100.00
45050;BME280;61798;48.048;-1.928;2023-07-29T08:06:10;100250.78;;;18.11;100.00
45050;BME280;61798;48.048;-1.928;2023-07-29T08:08:16;100240.28;;;18.20;100.00
45050;BME280;61798;48.048;-1.928;2023-07-29T08:10:21;100234.59;;;18.21;100.00
45050;BME280;61798;48.048;-1.928;2023-07-29T08:12:27;100250.59;;;18.45;100.00
45050;BME280;61798;48.048;-1.928;2023-07-29T08:14:33;100244.00;;;18.36;100.00
45050;BME280;61798;48.048;-1.928;2023-07-29T08:16:39;100222.09;;;18.20;100.00
45050;BME280;61798;48.048;-1.928;2023-07-29T08:18:45;100246.81;;;18.74;100.00
45050;BME280;61798;48.048;-1.928;2023-07-29T08:20:55;100250.16;;;18.54;100.00
45050;BME280;61798;48.048;-1.928;2023-07-29T08:23:01;100246.78;;;18.18;100.00
45050;BME280;61798;48.048;-1.928;2023-07-29T08:25:07;100256.78;;;18.68;100.00
45050;BME280;61798;48.048;-1.928;2023-07-29T08:27:13;100234.38;;;18.51;100.00
45050;BME280;61798;48.048;-1.928;2023-07-29T08:29:19;100261.41;;;18.68;100.00
45050;BME280;61798;48.048;-1.928;2023-07-29T08:31:24;100263.03;;;18.69;100.00
45050;BME280;61798;48.048;-1.928;2023-07-29T08:33:31;100265.19;;;18.67;100.00
45050;BME280;61798;48.048;-1.928;2023-07-29T08:35:39;100266.34;;;18.76;100.00
45050;BME280;61798;48.048;-1.928;2023-07-29T08:37:44;100236.16;;;18.39;100.00
45050;BME280;61798;48.048;-1.928;2023-07-29T08:39:50;100254.00;;;18.63;100.00
45050;BME280;61798;48.048;-1.928;2023-07-29T08:42:07;100255.72;;;18.69;100.00
45050;BME280;61798;48.048;-1.928;2023-07-29T08:44:21;100268.31;;;18.53;100.00
45050;BME280;61798;48.048;-1.928;2023-07-29T08:46:31;100239.50;;;18.24;100.00
45050;BME280;61798;48.048;-1.928;2023-07-29T08:48:42;100237.44;;;18.32;100.00
45050;BME280;61798;48.048;-1.928;2023-07-29T08:50:48;100262.13;;;18.58;100.00
45050;BME280;61798;48.048;-1.928;2023-07-29T08:52:55;100244.41;;;18.83;100.00
45050;BME280;61798;48.048;-1.928;2023-07-29T08:55:01;100240.97;;;18.93;100.00
45050;BME280;61798;48.048;-1.928;2023-07-29T08:57:07;100231.91;;;18.77;100.00
45050;BME280;61798;48.048;-1.928;2023-07-29T08:59:14;100234.97;;;18.91;100.00
45050;BME280;61798;48.048;-1.928;2023-07-29T09:01:21;100266.88;;;19.06;100.00
45050;BME280;61798;48.048;-1.928;2023-07-29T09:03:27;100231.59;;;19.11;100.00
45050;BME280;61798;48.048;-1.928;2023-07-29T09:05:33;100258.72;;;19.06;100.00
45050;BME280;61798;48.048;-1.928;2023-07-29T09:07:40;100260.09;;;19.09;100.00
45050;BME280;61798;48.048;-1.928;2023-07-29T09:09:46;100257.13;;;19.10;100.00
45050;BME280;61798;48.048;-1.928;2023-07-29T09:11:53;100267.19;;;19.10;100.00
45050;BME280;61798;48.048;-1.928;2023-07-29T09:13:59;100239.97;;;19.05;100.00
45050;BME280;61798;48.048;-1.928;2023-07-29T09:16:05;100249.13;;;19.31;100.00
45050;BME280;61798;48.048;-1.928;2023-07-29T09:18:15;100262.75;;;19.37;100.00
45050;BME280;61798;48.048;-1.928;2023-07-29T09:20:25;100248.19;;;19.15;100.00
45050;BME280;61798;48.048;-1.928;2023-07-29T09:22:31;100237.31;;;19.15;100.00
45050;BME280;61798;48.048;-1.928;2023-07-29T09:24:37;100246.34;;;19.21;100.00
45050;BME280;61798;48.048;-1.928;2023-07-29T09:26:49;100260.00;;;19.26;100.00
45050;BME280;61798;48.048;-1.928;2023-07-29T09:28:56;100239.09;;;19.27;100.00
45050;BME280;61798;48.048;-1.928;2023-07-29T09:31:02;100241.28;;;19.35;100.00
45050;BME280;61798;48.048;-1.928;2023-07-29T09:33:09;100258.50;;;19.51;100.00
45050;BME280;61798;48.048;-1.928;2023-07-29T09:35:15;100250.53;;;19.39;100.00
45050;BME280;61798;48.048;-1.928;2023-07-29T09:37:21;100227.69;;;19.30;100.00
45050;BME280;61798;48.048;-1.928;2023-07-29T09:39:28;100259.59;;;19.55;100.00
45050;BME280;61798;48.048;-1.928;2023-07-29T09:41:34;100259.34;;;19.57;100.00
45050;BME280;61798;48.048;-1.928;2023-07-29T09:43:39;100250.72;;;19.71;100.00
45050;BME280;61798;48.048;-1.928;2023-07-29T09:45:46;100266.50;;;19.79;100.00
45050;BME280;61798;48.048;-1.928;2023-07-29T09:47:53;100253.56;;;20.02;100.00
45050;BME280;61798;48.048;-1.928;2023-07-29T09:49:59;100249.38;;;19.79;100.00
45050;BME280;61798;48.048;-1.928;2023-07-29T09:52:08;100257.38;;;20.06;100.00
45050;BME280;61798;48.048;-1.928;2023-07-29T09:54:14;100239.06;;;19.81;100.00
45050;BME280;61798;48.048;-1.928;2023-07-29T09:56:26;100260.69;;;20.14;100.00
45050;BME280;61798;48.048;-1.928;2023-07-29T09:58:32;100246.31;;;20.24;100.00
45050;BME280;61798;48.048;-1.928;2023-07-29T10:00:39;100242.78;;;20.18;100.00
45050;BME280;61798;48.048;-1.928;2023-07-29T10:02:45;100234.06;;;20.32;100.00
45050;BME280;61798;48.048;-1.928;2023-07-29T10:04:55;100258.31;;;20.44;100.00
45050;BME280;61798;48.048;-1.928;2023-07-29T10:07:00;100253.97;;;20.48;100.00
45050;BME280;61798;48.048;-1.928;2023-07-29T10:09:07;100244.44;;;20.45;100.00
45050;BME280;61798;48.048;-1.928;2023-07-29T10:11:13;100221.84;;;20.34;100.00
45050;BME280;61798;48.048;-1.928;2023-07-29T10:13:19;100225.13;;;20.47;100.00
45050;BME280;61798;48.048;-1.928;2023-07-29T10:15:25;100265.13;;;20.46;100.00
45050;BME280;61798;48.048;-1.928;2023-07-29T10:17:36;100226.47;;;20.44;100.00
45050;BME280;61798;48.048;-1.928;2023-07-29T10:19:43;100246.38;;;20.50;100.00
45050;BME280;61798;48.048;-1.928;2023-07-29T10:21:50;100255.31;;;20.40;100.00
45050;BME280;61798;48.048;-1.928;2023-07-29T10:24:01;100243.88;;;20.33;100.00
45050;BME280;61798;48.048;-1.928;2023-07-29T10:26:10;100254.28;;;20.62;100.00
45050;BME280;61798;48.048;-1.928;2023-07-29T10:28:19;100252.03;;;20.22;100.00
45050;BME280;61798;48.048;-1.928;2023-07-29T10:30:28;100259.44;;;20.53;100.00
45050;BME280;61798;48.048;-1.928;2023-07-29T10:32:34;100243.59;;;20.29;100.00
45050;BME280;61798;48.048;-1.928;2023-07-29T10:34:40;100225.66;;;20.33;100.00
45050;BME280;61798;48.048;-1.928;2023-07-29T10:36:47;100261.34;;;20.74;100.00
45050;BME280;61798;48.048;-1.928;2023-07-29T10:38:54;100253.97;;;20.48;100.00
45050;BME280;61798;48.048;-1.928;2023-07-29T10:41:00;100233.03;;;20.48;100.00
45050;BME280;61798;48.048;-1.928;2023-07-29T10:43:11;100250.44;;;20.63;100.00
45050;BME280;61798;48.048;-1.928;2023-07-29T10:45:18;100224.31;;;20.41;100.00
45050;BME280;61798;48.048;-1.928;2023-07-29T10:47:26;100251.00;;;20.76;100.00
45050;BME280;61798;48.048;-1.928;2023-07-29T10:49:35;100225.13;;;20.78;100.00
45050;BME280;61798;48.048;-1.928;2023-07-29T10:51:41;100237.94;;;20.94;100.00